sensor_id;sensor_type;location;lat;lon;timestamp;temperature;humidity
75961;SHT30;64644;48.914;2.254;2023-08-01T00:02:14;20.93;78.22
75961;SHT30;64644;48.914;2.254;2023-08-01T00:04:39;20.94;78.17
75961;SHT30;64644;48.914;2.254;2023-08-01T00:07:04;20.91;78.19
75961;SHT30;64644;48.914;2.254;2023-08-01T00:09:30;20.89;78.23
75961;SHT30;64644;48.914;2.254;2023-08-01T00:11:55;20.93;78.15
75961;SHT30;64644;48.914;2.254;2023-08-01T00:14:20;20.93;78.14
75961;SHT30;64644;48.914;2.254;2023-08-01T00:16:49;20.93;78.19
75961;SHT30;64644;48.914;2.254;2023-08-01T00:19:15;20.90;78.12
75961;SHT30;64644;48.914;2.254;2023-08-01T00:21:40;20.87;78.11
75961;SHT30;64644;48.914;2.254;2023-08-01T00:24:05;20.80;78.20
75961;SHT30;64644;48.914;2.254;2023-08-01T00:26:32;20.75;78.30
75961;SHT30;64644;48.914;2.254;2023-08-01T00:28:57;20.72;78.45
75961;SHT30;64644;48.914;2.254;2023-08-01T00:31:22;20.73;78.43
75961;SHT30;64644;48.914;2.254;2023-08-01T00:33:48;20.73;78.45
75961;SHT30;64644;48.914;2.254;2023-08-01T00:36:13;20.72;78.46
75961;SHT30;64644;48.914;2.254;2023-08-01T00:38:38;20.71;78.46
75961;SHT30;64644;48.914;2.254;2023-08-01T00:41:04;20.66;78.97
75961;SHT30;64644;48.914;2.254;2023-08-01T00:43:30;20.62;79.01
75961;SHT30;64644;48.914;2.254;2023-08-01T00:45:59;20.55;84.79
75961;SHT30;64644;48.914;2.254;2023-08-01T00:48:26;20.53;87.32
75961;SHT30;64644;48.914;2.254;2023-08-01T00:50:52;20.55;81.41
75961;SHT30;64644;48.914;2.254;2023-08-01T00:53:18;20.56;79.78
75961;SHT30;64644;48.914;2.254;2023-08-01T00:55:43;20.59;79.26
75961;SHT30;64644;48.914;2.254;2023-08-01T00:58:09;20.61;79.32
75961;SHT30;64644;48.914;2.254;2023-08-01T01:00:34;20.63;79.28
75961;SHT30;64644;48.914;2.254;2023-08-01T01:03:00;20.59;79.18
75961;SHT30;64644;48.914;2.254;2023-08-01T01:05:27;20.55;79.06
75961;SHT30;64644;48.914;2.254;2023-08-01T01:07:54;20.45;79.54
75961;SHT30;64644;48.914;2.254;2023-08-01T01:10:19;20.45;79.76
75961;SHT30;64644;48.914;2.254;2023-08-01T01:12:44;20.44;79.91
75961;SHT30;64644;48.914;2.254;2023-08-01T01:15:10;20.49;80.39
75961;SHT30;64644;48.914;2.254;2023-08-01T01:17:35;20.39;80.43
75961;SHT30;64644;48.914;2.254;2023-08-01T01:20:00;20.34;80.11
75961;SHT30;64644;48.914;2.254;2023-08-01T01:22:27;20.31;80.01
75961;SHT30;64644;48.914;2.254;2023-08-01T01:24:55;20.30;80.02
75961;SHT30;64644;48.914;2.254;2023-08-01T01:27:21;20.28;80.04
75961;SHT30;64644;48.914;2.254;2023-08-01T01:29:48;20.28;80.23
75961;SHT30;64644;48.914;2.254;2023-08-01T01:32:13;20.30;80.20
75961;SHT30;64644;48.914;2.254;2023-08-01T01:34:39;20.30;80.21
75961;SHT30;64644;48.914;2.254;2023-08-01T01:37:04;20.30;80.10
75961;SHT30;64644;48.914;2.254;2023-08-01T01:39:29;20.30;80.05
75961;SHT30;64644;48.914;2.254;2023-08-01T01:41:55;20.28;80.19
75961;SHT30;64644;48.914;2.254;2023-08-01T01:44:20;20.34;80.32
75961;SHT30;64644;48.914;2.254;2023-08-01T01:46:45;20.35;80.20
75961;SHT30;64644;48.914;2.254;2023-08-01T01:49:11;20.35;80.06
75961;SHT30;64644;48.914;2.254;2023-08-01T01:51:37;20.34;80.02
75961;SHT30;64644;48.914;2.254;2023-08-01T01:54:02;20.34;80.12
75961;SHT30;64644;48.914;2.254;2023-08-01T01:56:27;20.32;80.07
75961;SHT30;64644;48.914;2.254;2023-08-01T01:58:53;20.32;80.01
75961;SHT30;64644;48.914;2.254;2023-08-01T02:01:18;20.31;79.89
75961;SHT30;64644;48.914;2.254;2023-08-01T02:03:43;20.31;79.77
75961;SHT30;64644;48.914;2.254;2023-08-01T02:06:09;20.25;79.74
75961;SHT30;64644;48.914;2.254;2023-08-01T02:08:34;20.27;79.68
75961;SHT30;64644;48.914;2.254;2023-08-01T02:10:59;20.25;79.63
75961;SHT30;64644;48.914;2.254;2023-08-01T02:13:29;20.24;79.52
75961;SHT30;64644;48.914;2.254;2023-08-01T02:15:55;20.22;79.67
75961;SHT30;64644;48.914;2.254;2023-08-01T02:18:20;20.25;79.66
75961;SHT30;64644;48.914;2.254;2023-08-01T02:20:46;20.21;79.61
75961;SHT30;64644;48.914;2.254;2023-08-01T02:23:11;20.22;79.60
75961;SHT30;64644;48.914;2.254;2023-08-01T02:25:40;20.21;79.58
75961;SHT30;64644;48.914;2.254;2023-08-01T02:28:06;20.21;79.51
75961;SHT30;64644;48.914;2.254;2023-08-01T02:30:31;20.18;79.54
75961;SHT30;64644;48.914;2.254;2023-08-01T02:32:56;20.16;79.40
75961;SHT30;64644;48.914;2.254;2023-08-01T02:35:22;20.11;79.32
75961;SHT30;64644;48.914;2.254;2023-08-01T02:37:47;20.13;79.26
75961;SHT30;64644;48.914;2.254;2023-08-01T02:40:12;20.09;79.27
75961;SHT30;64644;48.914;2.254;2023-08-01T02:42:38;20.09;79.35
75961;SHT30;64644;48.914;2.254;2023-08-01T02:45:03;20.06;79.24
75961;SHT30;64644;48.914;2.254;2023-08-01T02:47:29;20.07;79.23
75961;SHT30;64644;48.914;2.254;2023-08-01T02:49:54;20.04;79.28
75961;SHT30;64644;48.914;2.254;2023-08-01T02:52:20;20.04;79.23
75961;SHT30;64644;48.914;2.254;2023-08-01T02:54:45;20.03;79.17
75961;SHT30;64644;48.914;2.254;2023-08-01T02:57:10;20.00;79.06
75961;SHT30;64644;48.914;2.254;2023-08-01T02:59:35;19.97;78.75
75961;SHT30;64644;48.914;2.254;2023-08-01T03:02:01;19.92;78.48
75961;SHT30;64644;48.914;2.254;2023-08-01T03:04:27;19.85;78.54
75961;SHT30;64644;48.914;2.254;2023-08-01T03:06:52;19.77;78.35
75961;SHT30;64644;48.914;2.254;2023-08-01T03:09:17;19.68;78.24
75961;SHT30;64644;48.914;2.254;2023-08-01T03:11:43;19.63;78.35
75961;SHT30;64644;48.914;2.254;2023-08-01T03:14:08;19.58;78.40
75961;SHT30;64644;48.914;2.254;2023-08-01T03:16:33;19.57;78.52
75961;SHT30;64644;48.914;2.254;2023-08-01T03:18:59;19.55;78.54
75961;SHT30;64644;48.914;2.254;2023-08-01T03:21:33;19.57;78.59
75961;SHT30;64644;48.914;2.254;2023-08-01T03:23:59;19.54;78.65
75961;SHT30;64644;48.914;2.254;2023-08-01T03:26:25;19.54;78.60
75961;SHT30;64644;48.914;2.254;2023-08-01T03:28:50;19.49;78.58
75961;SHT30;64644;48.914;2.254;2023-08-01T03:31:15;19.51;78.53
75961;SHT30;64644;48.914;2.254;2023-08-01T03:33:41;19.51;78.57
75961;SHT30;64644;48.914;2.254;2023-08-01T03:36:06;19.52;78.65
75961;SHT30;64644;48.914;2.254;2023-08-01T03:38:32;19.51;78.39
75961;SHT30;64644;48.914;2.254;2023-08-01T03:40:57;19.49;78.32
75961;SHT30;64644;48.914;2.254;2023-08-01T03:43:22;19.45;78.14
75961;SHT30;64644;48.914;2.254;2023-08-01T03:45:49;19.39;77.91
75961;SHT30;64644;48.914;2.254;2023-08-01T03:48:15;19.38;77.84
75961;SHT30;64644;48.914;2.254;2023-08-01T03:50:40;19.35;77.82
75961;SHT30;64644;48.914;2.254;2023-08-01T03:53:06;19.32;77.85
75961;SHT30;64644;48.914;2.254;2023-08-01T03:55:32;19.32;77.97
75961;SHT30;64644;48.914;2.254;2023-08-01T03:57:57;19.28;77.85
75961;SHT30;64644;48.914;2.254;2023-08-01T04:00:23;19.28;77.59
75961;SHT30;64644;48.914;2.254;2023-08-01T04:02:48;19.21;77.39
75961;SHT30;64644;48.914;2.254;2023-08-01T04:05:13;19.17;77.36
75961;SHT30;64644;48.914;2.254;2023-08-01T04:07:39;19.15;77.35
75961;SHT30;64644;48.914;2.254;2023-08-01T04:10:04;19.14;77.34
75961;SHT30;64644;48.914;2.254;2023-08-01T04:12:34;19.10;77.33
75961;SHT30;64644;48.914;2.254;2023-08-01T04:15:00;19.10;77.33
75961;SHT30;64644;48.914;2.254;2023-08-01T04:17:26;19.08;77.33
75961;SHT30;64644;48.914;2.254;2023-08-01T04:19:52;19.07;77.27
75961;SHT30;64644;48.914;2.254;2023-08-01T04:22:17;19.10;77.35
75961;SHT30;64644;48.914;2.254;2023-08-01T04:24:42;19.07;77.39
75961;SHT30;64644;48.914;2.254;2023-08-01T04:27:08;19.04;77.28
75961;SHT30;64644;48.914;2.254;2023-08-01T04:29:34;19.02;77.11
75961;SHT30;64644;48.914;2.254;2023-08-01T04:31:59;19.02;77.16
75961;SHT30;64644;48.914;2.254;2023-08-01T04:34:24;19.02;77.29
75961;SHT30;64644;48.914;2.254;2023-08-01T04:36:50;18.99;77.10
75961;SHT30;64644;48.914;2.254;2023-08-01T04:39:15;18.95;77.05
75961;SHT30;64644;48.914;2.254;2023-08-01T04:41:40;18.89;76.98
75961;SHT30;64644;48.914;2.254;2023-08-01T04:44:06;18.92;77.23
75961;SHT30;64644;48.914;2.254;2023-08-01T04:46:32;18.92;77.31
75961;SHT30;64644;48.914;2.254;2023-08-01T04:48:57;18.95;77.12
75961;SHT30;64644;48.914;2.254;2023-08-01T04:51:22;18.95;76.98
75961;SHT30;64644;48.914;2.254;2023-08-01T04:53:48;18.95;77.01
75961;SHT30;64644;48.914;2.254;2023-08-01T04:56:13;18.96;76.97
75961;SHT30;64644;48.914;2.254;2023-08-01T04:58:39;18.96;76.97
75961;SHT30;64644;48.914;2.254;2023-08-01T05:01:04;18.95;76.82
75961;SHT30;64644;48.914;2.254;2023-08-01T05:03:29;18.89;76.73
75961;SHT30;64644;48.914;2.254;2023-08-01T05:05:55;18.89;76.65
75961;SHT30;64644;48.914;2.254;2023-08-01T05:08:20;18.87;76.67
75961;SHT30;64644;48.914;2.254;2023-08-01T05:10:45;18.90;76.79
75961;SHT30;64644;48.914;2.254;2023-08-01T05:13:10;18.89;76.68
75961;SHT30;64644;48.914;2.254;2023-08-01T05:15:36;18.89;76.70
75961;SHT30;64644;48.914;2.254;2023-08-01T05:18:01;18.92;76.56
75961;SHT30;64644;48.914;2.254;2023-08-01T05:20:26;18.92;76.47
75961;SHT30;64644;48.914;2.254;2023-08-01T05:22:59;18.92;76.51
75961;SHT30;64644;48.914;2.254;2023-08-01T05:25:25;18.93;76.46
75961;SHT30;64644;48.914;2.254;2023-08-01T05:27:50;18.87;76.23
75961;SHT30;64644;48.914;2.254;2023-08-01T05:30:16;18.87;76.08
75961;SHT30;64644;48.914;2.254;2023-08-01T05:32:41;18.80;76.04
75961;SHT30;64644;48.914;2.254;2023-08-01T05:35:08;18.73;75.90
75961;SHT30;64644;48.914;2.254;2023-08-01T05:37:34;18.72;76.14
75961;SHT30;64644;48.914;2.254;2023-08-01T05:39:59;18.79;76.32
75961;SHT30;64644;48.914;2.254;2023-08-01T05:42:24;18.79;76.18
75961;SHT30;64644;48.914;2.254;2023-08-01T05:44:50;18.77;76.02
75961;SHT30;64644;48.914;2.254;2023-08-01T05:47:15;18.77;75.89
75961;SHT30;64644;48.914;2.254;2023-08-01T05:49:40;18.76;75.85
75961;SHT30;64644;48.914;2.254;2023-08-01T05:52:06;18.73;75.79
75961;SHT30;64644;48.914;2.254;2023-08-01T05:54:32;18.70;75.76
75961;SHT30;64644;48.914;2.254;2023-08-01T05:56:57;18.68;75.75
75961;SHT30;64644;48.914;2.254;2023-08-01T05:59:23;18.66;75.78
75961;SHT30;64644;48.914;2.254;2023-08-01T06:01:48;18.73;75.82
75961;SHT30;64644;48.914;2.254;2023-08-01T06:04:13;18.73;75.72
75961;SHT30;64644;48.914;2.254;2023-08-01T06:06:39;18.75;75.68
75961;SHT30;64644;48.914;2.254;2023-08-01T06:09:04;18.73;75.64
75961;SHT30;64644;48.914;2.254;2023-08-01T06:11:29;18.66;75.58
75961;SHT30;64644;48.914;2.254;2023-08-01T06:13:55;18.65;75.55
75961;SHT30;64644;48.914;2.254;2023-08-01T06:16:20;18.69;75.58
75961;SHT30;64644;48.914;2.254;2023-08-01T06:18:45;18.61;75.53
75961;SHT30;64644;48.914;2.254;2023-08-01T06:21:11;18.65;75.55
75961;SHT30;64644;48.914;2.254;2023-08-01T06:23:36;18.63;75.51
75961;SHT30;64644;48.914;2.254;2023-08-01T06:26:01;18.63;75.45
75961;SHT30;64644;48.914;2.254;2023-08-01T06:28:27;18.68;75.43
75961;SHT30;64644;48.914;2.254;2023-08-01T06:30:52;18.66;75.28
75961;SHT30;64644;48.914;2.254;2023-08-01T06:33:17;18.66;75.25
75961;SHT30;64644;48.914;2.254;2023-08-01T06:35:43;18.68;75.24
75961;SHT30;64644;48.914;2.254;2023-08-01T06:38:08;18.75;75.34
75961;SHT30;64644;48.914;2.254;2023-08-01T06:40:33;18.80;75.30
75961;SHT30;64644;48.914;2.254;2023-08-01T06:42:59;18.86;75.26
75961;SHT30;64644;48.914;2.254;2023-08-01T06:45:24;18.92;75.06
75961;SHT30;64644;48.914;2.254;2023-08-01T06:47:49;18.89;74.88
75961;SHT30;64644;48.914;2.254;2023-08-01T06:50:15;18.99;74.81
75961;SHT30;64644;48.914;2.254;2023-08-01T06:52:40;19.07;74.82
75961;SHT30;64644;48.914;2.254;2023-08-01T06:55:06;19.15;74.70
75961;SHT30;64644;48.914;2.254;2023-08-01T06:57:31;19.20;74.46
75961;SHT30;64644;48.914;2.254;2023-08-01T06:59:57;19.20;74.14
75961;SHT30;64644;48.914;2.254;2023-08-01T07:02:22;19.20;74.00
75961;SHT30;64644;48.914;2.254;2023-08-01T07:04:47;19.24;74.05
75961;SHT30;64644;48.914;2.254;2023-08-01T07:07:13;19.25;73.86
75961;SHT30;64644;48.914;2.254;2023-08-01T07:09:38;19.27;73.94
75961;SHT30;64644;48.914;2.254;2023-08-01T07:12:04;19.23;73.78
75961;SHT30;64644;48.914;2.254;2023-08-01T07:14:30;19.15;73.60
75961;SHT30;64644;48.914;2.254;2023-08-01T07:16:55;19.18;73.49
75961;SHT30;64644;48.914;2.254;2023-08-01T07:19:21;19.21;73.48
75961;SHT30;64644;48.914;2.254;2023-08-01T07:21:46;19.23;73.49
75961;SHT30;64644;48.914;2.254;2023-08-01T07:24:14;19.23;73.38
75961;SHT30;64644;48.914;2.254;2023-08-01T07:26:40;19.27;73.31
75961;SHT30;64644;48.914;2.254;2023-08-01T07:29:05;19.35;73.19
75961;SHT30;64644;48.914;2.254;2023-08-01T07:31:33;19.42;73.13
75961;SHT30;64644;48.914;2.254;2023-08-01T07:33:58;19.52;73.15
75961;SHT30;64644;48.914;2.254;2023-08-01T07:36:24;19.57;72.88
75961;SHT30;64644;48.914;2.254;2023-08-01T07:38:49;19.57;72.63
75961;SHT30;64644;48.914;2.254;2023-08-01T07:41:14;19.61;72.54
75961;SHT30;64644;48.914;2.254;2023-08-01T07:43:40;19.63;72.40
75961;SHT30;64644;48.914;2.254;2023-08-01T07:46:05;19.69;72.19
75961;SHT30;64644;48.914;2.254;2023-08-01T07:48:31;19.76;72.18
75961;SHT30;64644;48.914;2.254;2023-08-01T07:50:56;19.79;72.11
75961;SHT30;64644;48.914;2.254;2023-08-01T07:53:21;19.79;71.91
75961;SHT30;64644;48.914;2.254;2023-08-01T07:55:47;19.79;71.83
75961;SHT30;64644;48.914;2.254;2023-08-01T07:58:12;19.85;71.76
75961;SHT30;64644;48.914;2.254;2023-08-01T08:00:37;19.89;71.72
75961;SHT30;64644;48.914;2.254;2023-08-01T08:03:04;19.92;71.57
75961;SHT30;64644;48.914;2.254;2023-08-01T08:05:31;19.96;71.57
75961;SHT30;64644;48.914;2.254;2023-08-01T08:07:56;19.97;71.64
75961;SHT30;64644;48.914;2.254;2023-08-01T08:10:21;19.98;71.56
75961;SHT30;64644;48.914;2.254;2023-08-01T08:12:47;19.94;71.49
75961;SHT30;64644;48.914;2.254;2023-08-01T08:15:12;19.98;71.30
75961;SHT30;64644;48.914;2.254;2023-08-01T08:17:39;20.10;71.42
75961;SHT30;64644;48.914;2.254;2023-08-01T08:20:04;20.14;71.29
75961;SHT30;64644;48.914;2.254;2023-08-01T08:22:31;20.16;70.97
75961;SHT30;64644;48.914;2.254;2023-08-01T08:24:56;20.17;70.69
75961;SHT30;64644;48.914;2.254;2023-08-01T08:27:22;20.22;70.59
75961;SHT30;64644;48.914;2.254;2023-08-01T08:29:47;20.21;70.34
75961;SHT30;64644;48.914;2.254;2023-08-01T08:32:12;20.30;70.09
75961;SHT30;64644;48.914;2.254;2023-08-01T08:34:38;20.39;69.72
75961;SHT30;64644;48.914;2.254;2023-08-01T08:37:04;20.48;69.65
75961;SHT30;64644;48.914;2.254;2023-08-01T08:39:30;20.52;69.44
75961;SHT30;64644;48.914;2.254;2023-08-01T08:41:55;20.58;69.25
75961;SHT30;64644;48.914;2.254;2023-08-01T08:44:21;20.62;69.01
75961;SHT30;64644;48.914;2.254;2023-08-01T08:46:50;20.66;68.74
75961;SHT30;64644;48.914;2.254;2023-08-01T08:49:17;20.72;68.71
75961;SHT30;64644;48.914;2.254;2023-08-01T08:51:45;20.75;68.57
75961;SHT30;64644;48.914;2.254;2023-08-01T08:54:11;20.77;68.05
75961;SHT30;64644;48.914;2.254;2023-08-01T08:56:38;20.87;67.92
75961;SHT30;64644;48.914;2.254;2023-08-01T08:59:04;20.83;67.62
75961;SHT30;64644;48.914;2.254;2023-08-01T09:01:31;20.96;67.93
75961;SHT30;64644;48.914;2.254;2023-08-01T09:03:57;21.01;67.94
75961;SHT30;64644;48.914;2.254;2023-08-01T09:06:30;21.01;67.65
75961;SHT30;64644;48.914;2.254;2023-08-01T09:09:05;21.00;67.34
75961;SHT30;64644;48.914;2.254;2023-08-01T09:11:48;21.07;67.52
75961;SHT30;64644;48.914;2.254;2023-08-01T09:14:15;21.11;67.37
75961;SHT30;64644;48.914;2.254;2023-08-01T09:16:41;21.28;67.20
75961;SHT30;64644;48.914;2.254;2023-08-01T09:19:08;21.35;66.97
75961;SHT30;64644;48.914;2.254;2023-08-01T09:21:34;21.34;66.72
75961;SHT30;64644;48.914;2.254;2023-08-01T09:24:10;21.37;66.60
75961;SHT30;64644;48.914;2.254;2023-08-01T09:26:36;21.25;66.53
75961;SHT30;64644;48.914;2.254;2023-08-01T09:29:02;21.28;66.39
75961;SHT30;64644;48.914;2.254;2023-08-01T09:31:39;21.41;66.08
75961;SHT30;64644;48.914;2.254;2023-08-01T09:34:06;21.53;65.87
75961;SHT30;64644;48.914;2.254;2023-08-01T09:36:34;21.69;65.82
75961;SHT30;64644;48.914;2.254;2023-08-01T09:39:03;21.78;65.47
75961;SHT30;64644;48.914;2.254;2023-08-01T09:41:30;21.92;65.09
75961;SHT30;64644;48.914;2.254;2023-08-01T09:43:56;21.98;64.92
75961;SHT30;64644;48.914;2.254;2023-08-01T09:46:21;22.04;64.55
75961;SHT30;64644;48.914;2.254;2023-08-01T09:48:46;22.08;64.79
75961;SHT30;64644;48.914;2.254;2023-08-01T09:51:14;22.04;64.42
75961;SHT30;64644;48.914;2.254;2023-08-01T09:53:51;22.00;63.95
75961;SHT30;64644;48.914;2.254;2023-08-01T09:56:21;22.03;63.77
75961;SHT30;64644;48.914;2.254;2023-08-01T09:58:47;22.06;63.37
75961;SHT30;64644;48.914;2.254;2023-08-01T10:01:14;22.01;63.07
75961;SHT30;64644;48.914;2.254;2023-08-01T10:03:45;22.04;63.03
75961;SHT30;64644;48.914;2.254;2023-08-01T10:06:16;21.90;62.80
75961;SHT30;64644;48.914;2.254;2023-08-01T10:08:44;21.86;62.87
75961;SHT30;64644;48.914;2.254;2023-08-01T10:11:11;21.79;63.17
75961;SHT30;64644;48.914;2.254;2023-08-01T10:13:37;21.76;63.43
75961;SHT30;64644;48.914;2.254;2023-08-01T10:16:02;21.69;63.57
75961;SHT30;64644;48.914;2.254;2023-08-01T10:18:28;21.69;63.63
75961;SHT30;64644;48.914;2.254;2023-08-01T10:20:54;21.72;63.70
75961;SHT30;64644;48.914;2.254;2023-08-01T10:23:20;21.76;63.69
75961;SHT30;64644;48.914;2.254;2023-08-01T10:25:46;21.79;63.78
75961;SHT30;64644;48.914;2.254;2023-08-01T10:28:12;21.83;63.58
75961;SHT30;64644;48.914;2.254;2023-08-01T10:30:37;21.93;63.51
75961;SHT30;64644;48.914;2.254;2023-08-01T10:33:02;21.98;63.11
75961;SHT30;64644;48.914;2.254;2023-08-01T10:35:32;22.06;63.12
75961;SHT30;64644;48.914;2.254;2023-08-01T10:38:09;22.07;62.87
75961;SHT30;64644;48.914;2.254;2023-08-01T10:40:35;22.10;62.81
75961;SHT30;64644;48.914;2.254;2023-08-01T10:43:01;22.13;62.91
75961;SHT30;64644;48.914;2.254;2023-08-01T10:45:26;22.28;63.13
75961;SHT30;64644;48.914;2.254;2023-08-01T10:47:53;22.40;62.87
75961;SHT30;64644;48.914;2.254;2023-08-01T10:50:19;22.48;62.56
75961;SHT30;64644;48.914;2.254;2023-08-01T10:52:45;22.51;62.47
75961;SHT30;64644;48.914;2.254;2023-08-01T10:55:11;22.47;61.96
75961;SHT30;64644;48.914;2.254;2023-08-01T10:57:39;22.44;62.13
75961;SHT30;64644;48.914;2.254;2023-08-01T11:00:15;22.38;61.81
75961;SHT30;64644;48.914;2.254;2023-08-01T11:02:41;22.38;61.56
75961;SHT30;64644;48.914;2.254;2023-08-01T11:05:07;22.41;61.41
75961;SHT30;64644;48.914;2.254;2023-08-01T11:07:34;22.56;60.62
75961;SHT30;64644;48.914;2.254;2023-08-01T11:12:37;23.00;60.27
75961;SHT30;64644;48.914;2.254;2023-08-01T11:15:03;23.13;59.99
75961;SHT30;64644;48.914;2.254;2023-08-01T11:17:31;23.18;59.33
75961;SHT30;64644;48.914;2.254;2023-08-01T11:20:07;23.22;59.24
75961;SHT30;64644;48.914;2.254;2023-08-01T11:22:56;23.21;59.13
75961;SHT30;64644;48.914;2.254;2023-08-01T11:25:51;23.22;59.14
75961;SHT30;64644;48.914;2.254;2023-08-01T11:28:19;23.31;59.25
75961;SHT30;64644;48.914;2.254;2023-08-01T11:30:44;23.47;59.08
75961;SHT30;64644;48.914;2.254;2023-08-01T11:33:24;23.61;58.85
75961;SHT30;64644;48.914;2.254;2023-08-01T11:35:51;23.73;58.41
75961;SHT30;64644;48.914;2.254;2023-08-01T11:38:17;23.84;58.03
75961;SHT30;64644;48.914;2.254;2023-08-01T11:40:42;23.82;57.34
75961;SHT30;64644;48.914;2.254;2023-08-01T11:43:08;23.82;57.30
75961;SHT30;64644;48.914;2.254;2023-08-01T11:45:33;23.77;56.64
75961;SHT30;64644;48.914;2.254;2023-08-01T11:47:59;23.79;56.55
75961;SHT30;64644;48.914;2.254;2023-08-01T11:50:25;23.79;56.39
75961;SHT30;64644;48.914;2.254;2023-08-01T11:52:51;23.77;56.30
75961;SHT30;64644;48.914;2.254;2023-08-01T11:55:26;23.70;56.28
75961;SHT30;64644;48.914;2.254;2023-08-01T11:57:56;23.63;56.98
75961;SHT30;64644;48.914;2.254;2023-08-01T12:00:27;23.49;56.72
75961;SHT30;64644;48.914;2.254;2023-08-01T12:03:06;23.35;57.27
75961;SHT30;64644;48.914;2.254;2023-08-01T12:05:32;23.27;57.76
75961;SHT30;64644;48.914;2.254;2023-08-01T12:08:08;23.30;58.91
75961;SHT30;64644;48.914;2.254;2023-08-01T12:10:39;23.34;58.89
75961;SHT30;64644;48.914;2.254;2023-08-01T12:13:04;23.35;58.87
75961;SHT30;64644;48.914;2.254;2023-08-01T12:15:29;23.35;58.83
75961;SHT30;64644;48.914;2.254;2023-08-01T12:17:56;23.45;58.74
75961;SHT30;64644;48.914;2.254;2023-08-01T12:20:22;23.49;58.54
75961;SHT30;64644;48.914;2.254;2023-08-01T12:22:47;23.49;58.23
75961;SHT30;64644;48.914;2.254;2023-08-01T12:25:12;23.55;57.52
75961;SHT30;64644;48.914;2.254;2023-08-01T12:27:38;23.82;57.33
75961;SHT30;64644;48.914;2.254;2023-08-01T12:30:04;23.96;57.12
75961;SHT30;64644;48.914;2.254;2023-08-01T12:32:30;24.01;56.80
75961;SHT30;64644;48.914;2.254;2023-08-01T12:34:55;24.09;56.60
75961;SHT30;64644;48.914;2.254;2023-08-01T12:37:20;24.20;56.58
75961;SHT30;64644;48.914;2.254;2023-08-01T12:39:46;24.24;56.15
75961;SHT30;64644;48.914;2.254;2023-08-01T12:42:11;24.41;56.30
75961;SHT30;64644;48.914;2.254;2023-08-01T12:44:36;24.63;56.28
75961;SHT30;64644;48.914;2.254;2023-08-01T12:47:02;24.69;56.03
75961;SHT30;64644;48.914;2.254;2023-08-01T12:49:27;24.68;55.78
75961;SHT30;64644;48.914;2.254;2023-08-01T12:51:53;24.68;55.68
75961;SHT30;64644;48.914;2.254;2023-08-01T12:54:18;24.76;55.45
75961;SHT30;64644;48.914;2.254;2023-08-01T12:56:43;24.93;55.15
75961;SHT30;64644;48.914;2.254;2023-08-01T12:59:09;25.17;54.65
75961;SHT30;64644;48.914;2.254;2023-08-01T13:01:34;25.27;54.61
75961;SHT30;64644;48.914;2.254;2023-08-01T13:03:59;25.37;54.20
75961;SHT30;64644;48.914;2.254;2023-08-01T13:06:25;25.49;54.18
75961;SHT30;64644;48.914;2.254;2023-08-01T13:08:50;25.49;53.94
75961;SHT30;64644;48.914;2.254;2023-08-01T13:11:15;25.45;53.80
75961;SHT30;64644;48.914;2.254;2023-08-01T13:13:42;25.28;53.57
75961;SHT30;64644;48.914;2.254;2023-08-01T13:16:08;25.27;53.80
75961;SHT30;64644;48.914;2.254;2023-08-01T13:18:34;25.23;53.66
75961;SHT30;64644;48.914;2.254;2023-08-01T13:21:00;25.28;53.93
75961;SHT30;64644;48.914;2.254;2023-08-01T13:23:26;25.30;54.21
75961;SHT30;64644;48.914;2.254;2023-08-01T13:25:51;25.18;54.15
75961;SHT30;64644;48.914;2.254;2023-08-01T13:28:17;25.03;54.38
75961;SHT30;64644;48.914;2.254;2023-08-01T13:30:43;24.84;54.65
75961;SHT30;64644;48.914;2.254;2023-08-01T13:33:08;24.77;54.92
75961;SHT30;64644;48.914;2.254;2023-08-01T13:35:34;24.89;54.99
75961;SHT30;64644;48.914;2.254;2023-08-01T13:37:59;25.06;55.04
75961;SHT30;64644;48.914;2.254;2023-08-01T13:40:25;25.18;54.81
75961;SHT30;64644;48.914;2.254;2023-08-01T13:42:50;25.27;54.63
75961;SHT30;64644;48.914;2.254;2023-08-01T13:45:15;25.39;54.67
75961;SHT30;64644;48.914;2.254;2023-08-01T13:47:41;25.53;54.59
75961;SHT30;64644;48.914;2.254;2023-08-01T13:50:06;25.57;54.55
75961;SHT30;64644;48.914;2.254;2023-08-01T13:52:32;25.38;54.52
75961;SHT30;64644;48.914;2.254;2023-08-01T13:54:57;25.24;54.24
75961;SHT30;64644;48.914;2.254;2023-08-01T13:57:22;25.20;54.57
75961;SHT30;64644;48.914;2.254;2023-08-01T13:59:49;25.14;54.63
75961;SHT30;64644;48.914;2.254;2023-08-01T14:02:14;25.11;54.76
75961;SHT30;64644;48.914;2.254;2023-08-01T14:04:40;25.06;54.88
75961;SHT30;64644;48.914;2.254;2023-08-01T14:07:05;26.42;55.17
75961;SHT30;64644;48.914;2.254;2023-08-01T14:09:31;28.45;52.64
75961;SHT30;64644;48.914;2.254;2023-08-01T14:11:57;28.79;50.51
75961;SHT30;64644;48.914;2.254;2023-08-01T14:14:23;28.29;50.07
75961;SHT30;64644;48.914;2.254;2023-08-01T14:16:48;27.65;50.55
75961;SHT30;64644;48.914;2.254;2023-08-01T14:19:13;27.04;51.00
75961;SHT30;64644;48.914;2.254;2023-08-01T14:21:39;26.69;52.18
75961;SHT30;64644;48.914;2.254;2023-08-01T14:24:04;26.34;51.96
75961;SHT30;64644;48.914;2.254;2023-08-01T14:26:29;25.98;52.37
75961;SHT30;64644;48.914;2.254;2023-08-01T14:28:55;25.79;52.90
75961;SHT30;64644;48.914;2.254;2023-08-01T14:31:20;25.53;52.81
75961;SHT30;64644;48.914;2.254;2023-08-01T14:33:45;25.27;52.97
75961;SHT30;64644;48.914;2.254;2023-08-01T14:36:11;25.07;53.23
75961;SHT30;64644;48.914;2.254;2023-08-01T14:38:38;24.83;53.20
75961;SHT30;64644;48.914;2.254;2023-08-01T14:41:03;24.71;53.72
75961;SHT30;64644;48.914;2.254;2023-08-01T14:43:29;24.63;53.95
75961;SHT30;64644;48.914;2.254;2023-08-01T14:45:54;24.59;54.43
75961;SHT30;64644;48.914;2.254;2023-08-01T14:48:19;24.59;54.72
75961;SHT30;64644;48.914;2.254;2023-08-01T14:50:46;24.52;54.82
75961;SHT30;64644;48.914;2.254;2023-08-01T14:53:11;24.48;54.97
75961;SHT30;64644;48.914;2.254;2023-08-01T14:55:36;24.47;55.06
75961;SHT30;64644;48.914;2.254;2023-08-01T14:58:02;24.42;55.08
75961;SHT30;64644;48.914;2.254;2023-08-01T15:00:28;24.34;54.85
75961;SHT30;64644;48.914;2.254;2023-08-01T15:02:53;24.21;55.18
75961;SHT30;64644;48.914;2.254;2023-08-01T15:05:18;24.00;55.93
75961;SHT30;64644;48.914;2.254;2023-08-01T15:07:44;23.75;56.99
75961;SHT30;64644;48.914;2.254;2023-08-01T15:10:09;23.59;57.50
75961;SHT30;64644;48.914;2.254;2023-08-01T15:12:35;23.49;58.28
75961;SHT30;64644;48.914;2.254;2023-08-01T15:15:00;23.42;58.62
75961;SHT30;64644;48.914;2.254;2023-08-01T15:17:26;23.44;58.75
75961;SHT30;64644;48.914;2.254;2023-08-01T15:19:51;23.47;59.22
75961;SHT30;64644;48.914;2.254;2023-08-01T15:22:18;23.55;59.44
75961;SHT30;64644;48.914;2.254;2023-08-01T15:24:44;23.69;59.28
75961;SHT30;64644;48.914;2.254;2023-08-01T15:27:10;23.69;59.12